Time;durP1;ratioP1;P1;durP2;ratioP2;P2;SDS_P1;SDS_P2;PMS_P1;PMS_P2;Temp;Humidity;BMP_temperature;BMP_pressure;BME280_temperature;BME280_humidity;BME280_pressure;Samples;Min_cycle;Max_cycle;Signal;HPM_P1;HPM_P2
2023/12/07 00:00:11;;;;;;;9.40;6.37;;;;;;;18.23;50.75;100732.88;4986248;28;20178;-73
2023/12/07 00:02:37;;;;;;;10.90;7.00;;;;;;;18.24;50.59;100728.81;5004890;28;20181;-75
2023/12/07 00:05:03;;;;;;;9.77;5.93;;;;;;;18.26;50.65;100740.69;4994803;28;20208;-74
2023/12/07 00:07:29;;;;;;;10.17;5.93;;;;;;;18.23;50.67;100732.03;4976479;28;20192;-74
2023/12/07 00:09:54;;;;;;;11.10;6.77;;;;;;;18.22;50.96;100731.19;4975038;28;20458;-74
2023/12/07 00:12:20;;;;;;;8.97;6.50;;;;;;;18.23;51.59;100717.72;4992854;28;20636;-74
2023/12/07 00:14:45;;;;;;;9.57;6.00;;;;;;;18.21;50.83;100718.09;4976153;28;20518;-74
2023/12/07 00:17:10;;;;;;;13.83;6.13;;;;;;;18.20;51.17;100716.44;4993374;28;20216;-74
2023/12/07 00:19:36;;;;;;;11.83;5.97;;;;;;;18.19;51.17;100716.81;5007578;28;20180;-76
2023/12/07 00:22:01;;;;;;;8.70;6.03;;;;;;;18.22;51.01;100724.66;4993026;28;20192;-74
2023/12/07 00:24:27;;;;;;;9.90;6.00;;;;;;;18.24;50.70;100720.22;5009784;28;20181;-74
2023/12/07 00:26:52;;;;;;;13.87;6.10;;;;;;;18.21;51.31;100723.81;5008685;28;20185;-74
2023/12/07 00:29:18;;;;;;;10.30;5.97;;;;;;;18.22;51.29;100733.22;4973542;28;20197;-74
2023/12/07 00:31:43;;;;;;;7.23;5.43;;;;;;;18.24;51.47;100734.53;4992557;28;20173;-73
2023/12/07 00:34:09;;;;;;;10.23;6.23;;;;;;;18.27;50.95;100742.34;4991482;28;20252;-74
2023/12/07 00:36:35;;;;;;;9.60;6.03;;;;;;;18.24;51.25;100740.22;4989216;28;20216;-74
2023/12/07 00:39:00;;;;;;;14.30;6.27;;;;;;;18.29;50.78;100739.97;4989526;28;20297;-74
2023/12/07 00:41:26;;;;;;;7.87;5.70;;;;;;;18.29;50.83;100754.25;4989213;28;20240;-74
2023/12/07 00:43:51;;;;;;;9.93;5.93;;;;;;;18.27;51.25;100747.25;4980273;28;20187;-74
2023/12/07 00:46:17;;;;;;;9.70;5.93;;;;;;;18.26;50.50;100739.88;4981395;28;20186;-74
2023/12/07 00:48:42;;;;;;;9.00;5.57;;;;;;;18.24;51.43;100754.53;4968896;28;20204;-74
2023/12/07 00:51:07;;;;;;;9.77;5.90;;;;;;;18.27;51.20;100758.69;4999991;28;20186;-74
2023/12/07 00:53:33;;;;;;;10.07;5.30;;;;;;;18.23;51.09;100764.31;4972569;28;20180;-74
2023/12/07 00:55:58;;;;;;;12.07;5.80;;;;;;;18.25;50.99;100761.06;4990564;28;20194;-72
2023/12/07 00:58:24;;;;;;;10.13;5.53;;;;;;;18.23;51.03;100755.72;4985407;28;20213;-72
2023/12/07 01:00:49;;;;;;;9.27;5.40;;;;;;;18.20;51.78;100758.47;4988977;28;20190;-72
2023/12/07 01:03:15;;;;;;;8.43;6.00;;;;;;;18.18;51.85;100761.72;4981064;28;20186;-72
2023/12/07 01:05:40;;;;;;;7.67;5.20;;;;;;;18.20;51.47;100767.03;4989192;28;20184;-72
2023/12/07 01:08:06;;;;;;;8.97;5.80;;;;;;;18.17;51.71;100765.75;4981254;28;20178;-71
2023/12/07 01:10:32;;;;;;;9.30;5.43;;;;;;;18.16;51.96;100764.09;4976248;28;20188;-72
2023/12/07 01:12:57;;;;;;;9.73;5.90;;;;;;;18.16;51.51;100775.53;4993890;28;20244;-72
2023/12/07 01:15:23;;;;;;;8.93;5.60;;;;;;;18.16;51.54;100769.81;4988911;28;20587;-72
2023/12/07 01:17:48;;;;;;;11.00;5.90;;;;;;;18.17;51.56;100771.47;4985561;28;20634;-72
2023/12/07 01:20:14;;;;;;;12.03;5.40;;;;;;;18.17;51.71;100782.88;4988345;28;20628;-72
2023/12/07 01:22:41;;;;;;;7.80;5.30;;;;;;;18.17;51.18;100777.19;4988283;28;20162;-72
2023/12/07 01:25:06;;;;;;;7.90;5.17;;;;;;;18.13;51.86;100776.28;4999801;28;20196;-72
2023/12/07 01:27:32;;;;;;;6.57;4.83;;;;;;;18.13;51.67;100775.44;4979682;28;20449;-72
2023/12/07 01:29:57;;;;;;;7.83;4.97;;;;;;;18.13;51.61;100775.44;4991399;28;20186;-72
2023/12/07 01:32:23;;;;;;;8.50;5.27;;;;;;;18.16;51.62;100775.53;4969617;28;20190;-72
2023/12/07 01:34:48;;;;;;;9.70;5.77;;;;;;;18.15;51.66;100771.00;4991184;28;20245;-72
2023/12/07 01:37:14;;;;;;;9.23;4.80;;;;;;;18.15;51.96;100771.00;4967998;28;20202;-72
2023/12/07 01:39:41;;;;;;;9.73;5.40;;;;;;;18.13;51.42;100761.16;4949479;28;20191;-72
2023/12/07 01:42:08;;;;;;;7.80;4.43;;;;;;;18.15;51.66;100764.44;4975693;28;20201;-72
2023/12/07 01:44:33;;;;;;;8.73;5.30;;;;;;;18.14;51.89;100765.66;4987952;28;20886;-72
2023/12/07 01:46:59;;;;;;;7.53;4.97;;;;;;;18.15;52.03;100771.00;4968986;28;20437;-71
2023/12/07 01:49:24;;;;;;;9.00;5.23;;;;;;;18.15;51.66;100771.00;4968953;28;20175;-72
2023/12/07 01:51:50;;;;;;;8.80;5.17;;;;;;;18.18;51.43;100773.16;4967406;28;20182;-72
2023/12/07 01:54:16;;;;;;;6.87;4.33;;;;;;;18.20;51.67;100772.75;4950563;28;20511;-71
2023/12/07 01:56:42;;;;;;;7.00;4.20;;;;;;;18.15;51.89;100776.72;4967301;28;20214;-72
2023/12/07 01:59:07;;;;;;;8.10;5.20;;;;;;;18.16;51.75;100766.94;4952335;28;20481;-72
2023/12/07 02:01:33;;;;;;;7.63;5.20;;;;;;;18.18;51.35;100770.28;4961874;28;20194;-72
2023/12/07 02:03:58;;;;;;;8.10;5.40;;;;;;;18.17;52.01;100771.47;4967600;28;20190;-72
2023/12/07 02:06:23;;;;;;;6.27;4.43;;;;;;;18.14;51.66;100769.34;4968862;28;20175;-74
2023/12/07 02:08:49;;;;;;;7.03;4.53;;;;;;;18.15;51.85;100771.00;4965440;28;20182;-74
2023/12/07 02:11:15;;;;;;;6.73;4.80;;;;;;;18.14;51.84;100775.06;4968033;28;20196;-75
2023/12/07 02:13:40;;;;;;;9.27;4.80;;;;;;;18.15;51.73;100762.44;4965259;28;20198;-75
2023/12/07 02:16:11;;;;;;;6.80;4.60;;;;;;;18.11;52.17;100766.41;4965252;28;20667;-75
2023/12/07 02:18:53;;;;;;;7.40;4.63;;;;;;;18.12;52.40;100768.88;4975169;28;20662;-74
2023/12/07 02:21:24;;;;;;;6.40;4.60;;;;;;;18.12;51.83;100774.59;4938653;28;20442;-75
2023/12/07 02:23:50;;;;;;;5.80;4.03;;;;;;;18.13;51.94;100770.56;4952194;28;20520;-75
2023/12/07 02:26:16;;;;;;;7.70;5.13;;;;;;;18.11;52.09;100770.06;4979940;28;20551;-75
2023/12/07 02:28:42;;;;;;;5.63;4.00;;;;;;;18.11;51.87;100763.56;4952402;28;20426;-75
2023/12/07 02:31:08;;;;;;;7.50;4.87;;;;;;;18.08;52.24;100767.13;4952674;28;20190;-74
2023/12/07 02:33:33;;;;;;;6.70;4.87;;;;;;;18.10;52.03;100765.56;4969717;28;20241;-74
2023/12/07 02:35:59;;;;;;;6.00;4.27;;;;;;;18.08;52.00;100779.41;4988873;28;20220;-75
2023/12/07 02:38:26;;;;;;;7.50;4.30;;;;;;;18.08;52.28;100776.53;4974678;28;20185;-75
2023/12/07 02:40:51;;;;;;;6.33;4.90;;;;;;;18.05;51.83;100780.13;4961281;28;20284;-74
2023/12/07 02:43:17;;;;;;;7.20;4.47;;;;;;;18.11;51.93;100772.94;4988207;28;20439;-75
2023/12/07 02:45:42;;;;;;;5.37;3.83;;;;;;;18.08;52.02;100770.00;4967344;28;20185;-74
2023/12/07 02:48:08;;;;;;;6.03;3.90;;;;;;;18.09;51.53;100768.78;4958002;28;20229;-74
2023/12/07 02:50:33;;;;;;;9.53;4.37;;;;;;;18.07;51.70;100766.28;5000274;28;20195;-74
2023/12/07 02:52:59;;;;;;;7.90;4.30;;;;;;;18.10;52.39;100767.59;4979957;28;20588;-74
2023/12/07 02:55:24;;;;;;;6.83;4.57;;;;;;;18.06;51.88;100767.50;4990410;28;20645;-74
2023/12/07 02:57:51;;;;;;;5.60;3.80;;;;;;;18.03;51.88;100764.53;4992951;28;20641;-74
2023/12/07 03:00:17;;;;;;;6.70;4.33;;;;;;;18.04;51.97;100767.03;4993603;28;20757;-75
2023/12/07 03:02:42;;;;;;;6.63;4.30;;;;;;;18.08;52.03;100764.28;4974099;28;20444;-74
2023/12/07 03:05:08;;;;;;;5.30;4.03;;;;;;;18.07;51.96;100760.56;4979771;28;20193;-74
2023/12/07 03:07:36;;;;;;;6.47;3.97;;;;;;;18.06;52.25;100769.53;4974022;28;20178;-74
2023/12/07 03:10:02;;;;;;;13.40;4.50;;;;;;;18.07;52.57;100768.34;4992764;28;20181;-74
2023/12/07 03:12:28;;;;;;;6.67;4.27;;;;;;;18.09;51.99;100772.47;4997074;28;20438;-75
2023/12/07 03:14:53;;;;;;;6.50;4.20;;;;;;;18.06;52.28;100781.78;4974156;28;20448;-75
2023/12/07 03:17:19;;;;;;;6.33;3.93;;;;;;;18.08;51.81;100770.84;4975109;28;20205;-72
2023/12/07 03:19:44;;;;;;;6.77;4.17;;;;;;;18.05;52.57;100780.13;4991983;28;20200;-71
2023/12/07 03:22:09;;;;;;;5.30;3.87;;;;;;;18.08;51.94;100779.41;5011234;28;20189;-71
2023/12/07 03:24:36;;;;;;;6.30;4.07;;;;;;;18.06;52.02;100781.78;5009738;28;20196;-72
2023/12/07 03:27:02;;;;;;;5.90;3.77;;;;;;;18.06;51.72;100778.91;4994254;28;20181;-72
2023/12/07 03:29:27;;;;;;;6.27;4.43;;;;;;;18.04;51.88;100783.34;4972759;28;20762;-72
2023/12/07 03:31:53;;;;;;;6.13;4.20;;;;;;;18.06;52.12;100789.53;5014343;28;20184;-72
2023/12/07 03:34:18;;;;;;;5.63;3.77;;;;;;;18.06;51.86;100789.53;4974226;28;20288;-72
2023/12/07 03:36:47;;;;;;;5.93;3.90;;;;;;;18.05;51.65;100797.25;4966806;28;20201;-72
2023/12/07 03:39:18;;;;;;;5.47;3.97;;;;;;;18.02;52.05;100792.28;4993345;28;20165;-72
2023/12/07 03:41:43;;;;;;;6.97;4.30;;;;;;;18.02;52.10;100792.28;4999657;28;20427;-72
2023/12/07 03:44:09;;;;;;;4.93;3.40;;;;;;;18.03;52.10;100787.41;4989504;28;20490;-72
2023/12/07 03:46:34;;;;;;;4.77;3.70;;;;;;;18.02;52.21;100785.75;4988811;28;20165;-72
2023/12/07 03:49:00;;;;;;;6.53;4.07;;;;;;;18.02;52.07;100792.28;4973646;28;20300;-72
2023/12/07 03:51:26;;;;;;;5.13;3.90;;;;;;;18.01;51.67;100795.50;4973375;28;20193;-71
2023/12/07 03:53:52;;;;;;;6.10;4.00;;;;;;;18.01;52.61;100790.63;4992749;28;20177;-72
2023/12/07 03:56:28;;;;;;;6.07;3.83;;;;;;;18.00;51.84;100797.53;4988772;28;20840;-71
2023/12/07 03:58:53;;;;;;;5.63;4.30;;;;;;;18.00;52.46;100791.81;5024296;28;20648;-72
2023/12/07 04:01:25;;;;;;;5.60;3.97;;;;;;;18.03;52.17;100788.25;5007594;28;20514;-72
2023/12/07 04:03:52;;;;;;;5.63;3.53;;;;;;;18.01;52.36;100784.91;4993358;28;20200;-72
2023/12/07 04:06:18;;;;;;;4.70;3.40;;;;;;;17.98;52.07;100785.66;4997897;28;20459;-71
2023/12/07 04:08:43;;;;;;;5.13;3.90;;;;;;;18.00;52.47;100777.53;4986503;28;20448;-72
2023/12/07 04:11:09;;;;;;;4.80;3.33;;;;;;;18.01;52.22;100781.22;4993451;28;20424;-72
2023/12/07 04:13:34;;;;;;;6.00;4.00;;;;;;;18.00;52.50;100783.25;4993631;28;20571;-72
2023/12/07 04:16:00;;;;;;;5.70;3.97;;;;;;;18.01;52.11;100784.91;4993829;28;20588;-72
2023/12/07 04:18:26;;;;;;;4.83;3.67;;;;;;;18.04;51.98;100789.91;4974752;28;20197;-72
2023/12/07 04:20:51;;;;;;;4.93;3.67;;;;;;;18.02;52.25;100780.03;4978093;28;20208;-72
2023/12/07 04:23:17;;;;;;;7.00;4.00;;;;;;;18.02;51.83;100788.59;4976963;28;20424;-72
2023/12/07 04:25:42;;;;;;;5.13;4.00;;;;;;;18.03;51.92;100793.94;4993064;28;20181;-73
2023/12/07 04:28:08;;;;;;;5.43;3.77;;;;;;;18.06;51.95;100787.50;4974906;28;20664;-73
2023/12/07 04:30:33;;;;;;;5.50;3.80;;;;;;;18.07;51.76;100786.28;4992222;28;20246;-74
2023/12/07 04:32:59;;;;;;;4.80;3.50;;;;;;;18.07;51.86;100788.34;4976138;28;20188;-75
2023/12/07 04:35:24;;;;;;;4.87;3.50;;;;;;;18.07;52.00;100794.84;4991044;28;20567;-74
2023/12/07 04:37:49;;;;;;;5.60;3.60;;;;;;;18.04;52.10;100787.03;4975316;28;20194;-74
2023/12/07 04:40:15;;;;;;;5.30;3.20;;;;;;;18.09;51.45;100780.22;4994339;28;20182;-73
2023/12/07 04:42:41;;;;;;;5.50;3.40;;;;;;;18.06;51.73;100787.50;5001480;28;20614;-74
2023/12/07 04:45:06;;;;;;;6.00;3.60;;;;;;;18.07;51.22;100782.63;5007974;28;20231;-74
2023/12/07 04:47:33;;;;;;;5.00;3.30;;;;;;;18.05;51.78;100782.97;4991479;28;20192;-73
2023/12/07 04:49:58;;;;;;;4.77;3.80;;;;;;;18.09;51.44;100785.94;4976668;28;20235;-75
2023/12/07 04:52:23;;;;;;;4.87;3.40;;;;;;;18.07;51.42;100783.44;5004213;28;20443;-73
2023/12/07 04:54:49;;;;;;;4.93;3.20;;;;;;;18.08;51.73;100787.97;4990326;28;20690;-74
2023/12/07 04:57:14;;;;;;;4.50;3.23;;;;;;;18.04;51.83;100789.06;4990839;28;20233;-73
2023/12/07 04:59:40;;;;;;;5.80;3.40;;;;;;;18.04;51.85;100789.06;4962591;28;20217;-73
2023/12/07 05:02:06;;;;;;;5.40;3.37;;;;;;;18.05;51.66;100791.56;4980588;28;20181;-73
2023/12/07 05:04:33;;;;;;;5.90;3.10;;;;;;;18.03;51.87;100781.69;4981486;28;20188;-74
2023/12/07 05:06:58;;;;;;;5.43;3.10;;;;;;;18.03;52.24;100779.66;4975647;28;20188;-73
2023/12/07 05:09:24;;;;;;;5.37;3.77;;;;;;;18.06;52.06;100781.78;4971150;28;21227;-73
2023/12/07 05:11:50;;;;;;;5.20;3.40;;;;;;;18.01;51.96;100784.91;4972758;28;20685;-73
2023/12/07 05:14:15;;;;;;;5.17;3.57;;;;;;;18.00;52.04;100785.25;4972958;28;20166;-73
2023/12/07 05:16:40;;;;;;;5.30;3.20;;;;;;;18.02;52.19;100785.75;4972361;28;20190;-73
2023/12/07 05:19:06;;;;;;;5.03;3.40;;;;;;;17.99;52.19;100790.16;4986716;28;20215;-74
2023/12/07 05:21:32;;;;;;;3.90;2.93;;;;;;;18.02;51.84;100788.59;4989242;28;20181;-73
2023/12/07 05:23:57;;;;;;;4.60;3.43;;;;;;;18.01;52.01;100787.75;4977830;28;20268;-73
2023/12/07 05:26:23;;;;;;;4.93;3.53;;;;;;;18.01;51.90;100789.81;4975569;28;20192;-74
2023/12/07 05:28:48;;;;;;;4.40;3.43;;;;;;;18.00;52.64;100793.81;4991393;28;20180;-73
2023/12/07 05:31:17;;;;;;;4.10;3.00;;;;;;;18.02;51.87;100788.59;4975384;28;20537;-73
2023/12/07 05:33:43;;;;;;;4.43;3.40;;;;;;;18.06;51.68;100795.25;4974410;28;20274;-73
2023/12/07 05:36:09;;;;;;;5.00;3.47;;;;;;;18.07;52.31;100792.00;4985851;28;20816;-75
2023/12/07 05:38:34;;;;;;;5.00;3.47;;;;;;;18.07;51.49;100800.56;4978137;28;20211;-75
2023/12/07 05:40:59;;;;;;;4.57;3.27;;;;;;;18.03;51.54;100796.81;4984832;28;20197;-74
2023/12/07 05:43:25;;;;;;;9.10;4.50;;;;;;;17.93;51.52;100805.91;4961460;28;20247;-73
2023/12/07 05:45:51;;;;;;;10.40;7.33;;;;;;;17.84;51.17;100798.69;4977632;28;20181;-74
2023/12/07 05:48:16;;;;;;;19.07;13.03;;;;;;;18.34;51.86;100805.47;4976419;28;20189;-74
2023/12/07 05:50:42;;;;;;;15.63;10.60;;;;;;;18.36;49.85;100805.09;4979824;28;20193;-74
2023/12/07 05:53:08;;;;;;;19.60;11.10;;;;;;;18.45;49.30;100800.84;4962004;28;20204;-73
2023/12/07 05:55:34;;;;;;;16.83;10.40;;;;;;;18.86;49.16;100793.75;4978590;28;20197;-73
2023/12/07 05:57:59;;;;;;;14.63;9.90;;;;;;;19.13;48.72;100793.59;4977470;28;20451;-73
2023/12/07 06:00:25;;;;;;;22.33;9.93;;;;;;;18.88;48.60;100799.91;4992736;28;20680;-72
2023/12/07 06:02:50;;;;;;;15.00;9.17;;;;;;;19.03;49.12;100793.31;4980243;28;20254;-73
2023/12/07 06:05:16;;;;;;;13.90;7.90;;;;;;;18.99;49.66;100795.25;4988476;28;20274;-73
2023/12/07 06:07:41;;;;;;;13.77;8.43;;;;;;;18.94;50.30;100804.13;4978888;28;20185;-74
2023/12/07 06:10:07;;;;;;;13.03;7.80;;;;;;;18.88;50.31;100802.75;4960547;28;20211;-73
2023/12/07 06:12:33;;;;;;;13.77;7.40;;;;;;;18.90;49.96;100803.22;4978985;28;20595;-74
2023/12/07 06:14:58;;;;;;;10.63;6.73;;;;;;;18.80;50.50;100798.91;4978748;28;20188;-73
2023/12/07 06:17:24;;;;;;;10.03;6.20;;;;;;;18.74;50.42;100806.09;4978466;28;20205;-73
2023/12/07 06:19:49;;;;;;;11.90;6.97;;;;;;;18.82;49.17;100792.81;4977444;28;20274;-73
2023/12/07 06:22:14;;;;;;;9.53;6.97;;;;;;;18.75;49.76;100802.03;4962328;28;20196;-73
2023/12/07 06:24:40;;;;;;;10.67;6.53;;;;;;;18.67;50.75;100797.31;4978593;28;20243;-72
2023/12/07 06:27:06;;;;;;;13.13;6.00;;;;;;;18.63;50.45;100805.00;4977011;28;20691;-73
2023/12/07 06:29:32;;;;;;;13.10;6.67;;;;;;;18.84;50.77;100796.13;4961386;28;20188;-73
2023/12/07 06:31:57;;;;;;;10.93;6.67;;;;;;;18.67;51.24;100803.03;4961002;28;20494;-73
2023/12/07 06:34:23;;;;;;;14.23;6.80;;;;;;;18.68;50.78;100803.88;4958769;28;20240;-73
2023/12/07 06:36:49;;;;;;;11.20;5.40;;;;;;;18.59;52.30;100808.97;4972418;28;20967;-73
2023/12/07 06:39:15;;;;;;;15.53;6.17;;;;;;;18.56;51.93;100804.81;4976807;28;20435;-73
2023/12/07 06:41:40;;;;;;;8.47;5.70;;;;;;;18.64;51.25;100802.97;4974787;28;20190;-74
2023/12/07 06:44:06;;;;;;;10.43;6.63;;;;;;;18.74;51.36;100808.13;4976021;28;20498;-74
2023/12/07 06:46:32;;;;;;;10.40;5.70;;;;;;;18.75;51.13;100804.91;4977277;28;20259;-70
2023/12/07 06:48:57;;;;;;;11.20;5.80;;;;;;;18.60;51.31;100800.03;4970608;28;20421;-71
2023/12/07 06:51:23;;;;;;;10.10;6.40;;;;;;;18.49;50.82;100786.63;4954730;28;20197;-72
2023/12/07 06:53:48;;;;;;;13.30;7.77;;;;;;;18.34;50.26;100791.16;4996357;28;20186;-72
2023/12/07 06:56:14;;;;;;;13.33;7.40;;;;;;;18.30;49.44;100789.34;4969781;28;20216;-71
2023/12/07 06:58:40;;;;;;;11.40;6.67;;;;;;;18.35;49.21;100772.81;4981759;28;20273;-72
2023/12/07 07:01:05;;;;;;;10.80;6.53;;;;;;;18.34;48.82;100781.75;4977256;28;20996;-78
2023/12/07 07:03:31;;;;;;;12.73;6.67;;;;;;;18.30;49.34;100784.47;5004158;28;20521;-73
2023/12/07 07:05:56;;;;;;;14.70;6.90;;;;;;;18.25;49.03;100781.06;4978231;28;20553;-74
2023/12/07 07:08:22;;;;;;;12.13;7.27;;;;;;;18.24;49.16;100776.53;4991361;28;20885;-71
2023/12/07 07:10:47;;;;;;;10.13;5.57;;;;;;;18.24;49.84;100779.41;4986884;28;20575;-71
2023/12/07 07:13:15;;;;;;;14.03;6.00;;;;;;;18.28;49.90;100786.06;5003352;28;20181;-71
2023/12/07 07:15:42;;;;;;;14.43;6.57;;;;;;;18.24;51.56;100782.25;5001981;28;20208;-72
2023/12/07 07:18:07;;;;;;;14.87;7.10;;;;;;;18.23;53.39;100774.88;4986101;28;20424;-73
2023/12/07 07:20:33;;;;;;;17.43;6.50;;;;;;;18.22;53.30;100785.47;4959119;28;20955;-73
2023/12/07 07:22:59;;;;;;;32.80;7.73;;;;;;;18.23;53.17;100792.03;4973484;28;20430;-73
2023/12/07 07:25:24;;;;;;;17.33;6.70;;;;;;;18.21;52.85;100795.25;4985294;28;20991;-74
2023/12/07 07:27:50;;;;;;;18.93;7.03;;;;;;;18.31;52.67;100799.63;4984788;28;20209;-74
2023/12/07 07:30:16;;;;;;;16.43;5.23;;;;;;;18.35;52.45;100806.25;5002729;28;20174;-74
2023/12/07 07:32:41;;;;;;;21.93;6.30;;;;;;;18.51;51.71;100805.09;4972620;28;20175;-73
2023/12/07 07:35:07;;;;;;;17.47;5.77;;;;;;;18.67;51.59;100805.91;4988639;28;20232;-73
2023/12/07 07:37:33;;;;;;;18.60;6.03;;;;;;;18.66;51.53;100812.03;4990196;28;20224;-74
2023/12/07 07:39:59;;;;;;;17.33;6.67;;;;;;;18.60;51.46;100827.78;4975929;28;20433;-73
2023/12/07 07:42:25;;;;;;;12.47;5.23;;;;;;;18.67;51.25;100830.84;4988655;28;20463;-73
2023/12/07 07:44:50;;;;;;;12.50;6.73;;;;;;;18.59;51.89;100831.84;5000650;28;20494;-72
2023/12/07 07:47:16;;;;;;;18.43;5.87;;;;;;;18.49;52.52;100833.22;4954374;28;20182;-72
2023/12/07 07:49:42;;;;;;;17.90;6.50;;;;;;;18.48;52.53;100814.41;4957192;28;20183;-74
2023/12/07 07:52:07;;;;;;;12.07;6.23;;;;;;;18.41;52.68;100794.19;4990554;28;20421;-71
2023/12/07 07:54:33;;;;;;;12.43;6.50;;;;;;;18.41;52.50;100791.34;4974926;28;20174;-72
2023/12/07 07:56:58;;;;;;;10.23;5.00;;;;;;;18.39;52.77;100790.88;4955397;28;20198;-71
2023/12/07 07:59:23;;;;;;;16.80;7.77;;;;;;;18.39;52.73;100799.47;4989173;28;20183;-72
2023/12/07 08:01:49;;;;;;;11.90;5.50;;;;;;;18.38;53.13;100806.38;4988618;28;20189;-72
2023/12/07 08:04:15;;;;;;;10.70;5.20;;;;;;;18.39;53.03;100808.03;4982017;28;20205;-72
2023/12/07 08:06:41;;;;;;;10.73;5.63;;;;;;;18.38;53.23;100823.53;4973949;28;20251;-72
2023/12/07 08:09:07;;;;;;;14.00;5.37;;;;;;;18.38;53.27;100809.25;4954533;28;20433;-72
2023/12/07 08:11:33;;;;;;;10.53;5.80;;;;;;;18.39;53.47;100810.06;4973277;28;20178;-72
2023/12/07 08:13:58;;;;;;;10.70;5.70;;;;;;;18.37;52.93;100796.13;4985700;28;20436;-72
2023/12/07 08:16:24;;;;;;;15.00;5.73;;;;;;;18.34;52.93;100808.31;4990219;28;20256;-72
2023/12/07 08:18:49;;;;;;;12.67;5.40;;;;;;;18.34;53.35;100810.34;4989884;28;20208;-72
2023/12/07 08:21:22;;;;;;;13.70;5.27;;;;;;;18.34;53.85;100798.91;5006288;28;20178;-72
2023/12/07 08:23:47;;;;;;;11.17;4.90;;;;;;;18.35;53.88;100807.13;4989782;28;20173;-72
2023/12/07 08:26:14;;;;;;;18.40;6.30;;;;;;;18.33;53.50;100812.38;4973517;28;20441;-71
2023/12/07 08:28:40;;;;;;;11.00;5.30;;;;;;;18.32;53.69;100807.00;4973211;28;20186;-72
2023/12/07 08:31:06;;;;;;;11.73;4.93;;;;;;;18.36;53.43;100807.97;4989827;28;20833;-72
2023/12/07 08:33:34;;;;;;;10.07;5.30;;;;;;;18.34;53.29;100802.59;4989005;28;20463;-71
2023/12/07 08:35:59;;;;;;;8.03;5.20;;;;;;;18.33;53.70;100794.38;4978477;28;20212;-71
2023/12/07 08:38:25;;;;;;;11.30;5.63;;;;;;;18.32;53.49;100790.69;4975854;28;20422;-71
2023/12/07 08:40:51;;;;;;;8.53;4.87;;;;;;;18.34;53.46;100794.03;4975588;28;20192;-72
2023/12/07 08:43:16;;;;;;;10.70;5.37;;;;;;;18.34;53.27;100799.75;4976907;28;20220;-72
2023/12/07 08:45:42;;;;;;;7.60;5.00;;;;;;;18.34;53.73;100791.16;5005890;28;20185;-72
2023/12/07 08:48:08;;;;;;;11.67;5.60;;;;;;;18.34;53.19;100784.59;5009475;28;20177;-72
2023/12/07 08:50:33;;;;;;;15.87;5.63;;;;;;;18.35;53.31;100781.38;4975646;28;20189;-72
2023/12/07 08:52:58;;;;;;;9.03;4.43;;;;;;;18.35;53.24;100778.53;4976583;28;20169;-72
2023/12/07 08:55:24;;;;;;;7.00;4.80;;;;;;;18.34;53.28;100765.44;4972142;28;20180;-72
2023/12/07 08:57:49;;;;;;;10.27;4.80;;;;;;;18.31;53.75;100762.47;4992674;28;20218;-72
2023/12/07 09:00:15;;;;;;;11.37;5.60;;;;;;;18.31;53.16;100774.69;4992138;28;20196;-72
2023/12/07 09:02:41;;;;;;;6.97;4.60;;;;;;;18.36;53.00;100768.75;4976647;28;20193;-72
2023/12/07 09:05:08;;;;;;;9.03;4.90;;;;;;;18.33;53.54;100775.22;4975924;28;20444;-72
2023/12/07 09:07:34;;;;;;;9.17;4.40;;;;;;;18.34;53.56;100765.44;4993256;28;20440;-74
2023/12/07 09:09:59;;;;;;;13.90;5.07;;;;;;;18.31;53.57;100771.84;4977790;28;20780;-74
2023/12/07 09:12:25;;;;;;;12.80;4.33;;;;;;;18.31;53.28;100765.31;4978852;28;20177;-73
2023/12/07 09:14:50;;;;;;;11.23;4.40;;;;;;;18.33;53.39;100758.06;4978312;28;20185;-73
2023/12/07 09:17:16;;;;;;;7.10;4.60;;;;;;;18.35;53.61;100749.09;4994754;28;20201;-74
2023/12/07 09:19:41;;;;;;;8.40;4.47;;;;;;;18.38;52.93;100754.09;4973982;28;20244;-73
2023/12/07 09:22:07;;;;;;;7.30;4.47;;;;;;;18.39;53.09;100755.75;4960498;28;20193;-74
2023/12/07 09:24:32;;;;;;;10.07;4.33;;;;;;;18.39;53.25;100752.88;4977207;28;20181;-73
2023/12/07 09:26:58;;;;;;;9.90;4.30;;;;;;;18.41;52.99;100754.19;4971964;28;20173;-73
2023/12/07 09:29:23;;;;;;;10.30;4.60;;;;;;;18.39;53.13;100756.59;4976159;28;20181;-73
2023/12/07 09:31:49;;;;;;;6.80;4.47;;;;;;;18.40;53.63;100751.69;5000939;28;20263;-73
2023/12/07 09:34:17;;;;;;;9.67;3.90;;;;;;;18.39;53.45;100756.59;4985689;28;20251;-73
2023/12/07 09:36:43;;;;;;;7.63;4.33;;;;;;;18.37;53.45;100750.38;4982872;28;20216;-74
2023/12/07 09:39:09;;;;;;;7.03;4.50;;;;;;;18.37;53.50;100753.25;4978539;28;20423;-73
2023/12/07 09:41:35;;;;;;;9.13;4.20;;;;;;;18.38;53.53;100754.94;4994207;28;20946;-73
2023/12/07 09:44:00;;;;;;;8.90;4.20;;;;;;;18.38;53.34;100763.50;4993630;28;20428;-73
2023/12/07 09:46:26;;;;;;;10.03;4.23;;;;;;;18.35;53.54;100761.38;4978951;28;20196;-75
2023/12/07 09:48:51;;;;;;;6.37;3.70;;;;;;;18.38;53.25;100760.66;4980227;28;20181;-73
2023/12/07 09:51:17;;;;;;;10.83;4.80;;;;;;;18.38;53.47;100754.09;5002915;28;20184;-73
2023/12/07 09:53:43;;;;;;;12.47;4.80;;;;;;;18.41;53.63;100759.09;4999158;28;20176;-73
2023/12/07 09:56:09;;;;;;;11.00;4.37;;;;;;;18.37;53.38;100758.16;4982271;28;20205;-73
2023/12/07 09:58:34;;;;;;;7.70;4.30;;;;;;;18.36;53.64;100756.50;4995163;28;20915;-73
2023/12/07 10:01:00;;;;;;;6.80;4.60;;;;;;;18.39;53.49;100755.75;4977136;28;20189;-73
2023/12/07 10:03:25;;;;;;;6.30;4.67;;;;;;;18.35;53.82;100754.81;4991748;28;20188;-74
2023/12/07 10:05:56;;;;;;;6.87;4.60;;;;;;;18.35;53.63;100752.81;4970811;28;20265;-73
2023/12/07 10:08:31;;;;;;;8.50;4.10;;;;;;;18.38;53.32;100745.50;4991620;28;20541;-73
2023/12/07 10:11:04;;;;;;;11.90;3.83;;;;;;;18.37;53.44;100735.28;5006780;28;20460;-73
2023/12/07 10:13:31;;;;;;;6.30;4.00;;;;;;;18.39;53.35;100732.88;4992114;28;20412;-73
2023/12/07 10:16:12;;;;;;;6.53;4.27;;;;;;;18.37;53.46;100727.53;4990628;28;20511;-71
2023/12/07 10:18:40;;;;;;;8.20;4.23;;;;;;;18.38;53.24;100734.94;4991479;28;21024;-72
2023/12/07 10:21:07;;;;;;;7.10;4.40;;;;;;;18.33;53.60;100729.50;4989671;28;20444;-72
2023/12/07 10:23:33;;;;;;;8.33;4.10;;;;;;;18.33;53.62;100723.78;4991735;28;20556;-72
2023/12/07 10:25:59;;;;;;;5.60;4.07;;;;;;;18.39;53.61;100722.28;4989269;28;20435;-72
2023/12/07 10:28:25;;;;;;;6.80;4.50;;;;;;;18.38;53.67;100714.06;4957691;28;20236;-72
2023/12/07 10:30:50;;;;;;;7.77;3.90;;;;;;;18.37;53.61;100706.69;4987819;28;20428;-71
2023/12/07 10:33:16;;;;;;;8.83;4.60;;;;;;;18.37;53.45;100704.66;4989781;28;20237;-71
2023/12/07 10:35:42;;;;;;;6.17;4.33;;;;;;;18.41;53.29;100691.28;4956678;28;20204;-71
2023/12/07 10:38:08;;;;;;;8.47;4.53;;;;;;;18.41;53.29;100682.72;4973996;28;20212;-72
2023/12/07 10:40:33;;;;;;;5.87;3.60;;;;;;;18.37;53.40;100673.22;5005695;28;20526;-72
2023/12/07 10:43:00;;;;;;;5.00;3.63;;;;;;;18.37;53.65;100663.81;4993781;28;20941;-72
2023/12/07 10:45:26;;;;;;;6.53;4.00;;;;;;;18.35;53.66;100664.19;5001182;28;20196;-72
2023/12/07 10:47:51;;;;;;;5.60;3.90;;;;;;;18.37;53.47;100666.69;4974680;28;20431;-72
2023/12/07 10:50:17;;;;;;;8.20;4.20;;;;;;;18.37;53.69;100669.53;4991142;28;20567;-72
2023/12/07 10:52:45;;;;;;;7.83;3.80;;;;;;;18.38;53.25;100666.31;4974694;28;20211;-72
2023/12/07 10:55:15;;;;;;;7.90;3.73;;;;;;;18.36;53.58;100654.41;4992528;28;20186;-72
2023/12/07 10:57:41;;;;;;;8.53;4.50;;;;;;;18.43;53.05;100660.31;4989950;28;20452;-72
2023/12/07 11:00:08;;;;;;;9.40;4.07;;;;;;;18.42;53.57;100655.78;4974235;28;20447;-72
2023/12/07 11:02:33;;;;;;;5.70;3.80;;;;;;;18.39;53.51;100661.41;4991112;28;20223;-72
2023/12/07 11:04:59;;;;;;;5.53;4.00;;;;;;;18.44;53.37;100659.09;4991328;28;20884;-72
2023/12/07 11:07:25;;;;;;;6.50;4.43;;;;;;;18.44;53.22;100650.53;4973516;28;20196;-72
2023/12/07 11:10:00;;;;;;;6.80;4.10;;;;;;;18.46;53.00;100648.13;4978891;28;20173;-72
2023/12/07 11:12:51;;;;;;;7.10;3.80;;;;;;;18.43;53.28;100640.31;4970137;28;20911;-72
2023/12/07 11:15:17;;;;;;;8.63;3.70;;;;;;;18.42;53.39;100635.75;4945701;28;20471;-72